Latest Weather Observations for Trangie

IDN60801

Issued at 6:32 pm EDT Tuesday 16 January 2018 (issued every 30 minutes, with the page automatically refreshed every 10 minutes)

About weather observations | Map of weather stations | Latest weather observations for NSW | Other Formats
Station Details ID: 051049 Name: TRANGIE RESEARCH STATION AWS Lat: -31.99 Lon: 147.95 Height: 215.0 m
Data from the previous 72 hours. | See also: Recent months at Trangie
Date/Time
EDT
Temp
°C
App
Temp
°C
Dew
Point
°C
Rel
Hum
%
Delta-T
°C
Wind Press
QNH
hPa
Press
MSL
hPa
Rain since
9am
mm
Dir  Spd
km/h
Gust
km/h
Spd
kts
Gust
kts
16/06:30pm 32.2 27.2 -4.6 9 16.7 SSW 13 20 7 11 1013.8 1012.5 0.0
16/06:00pm 31.8 26.4 -4.9 9 16.5 S 15 24 8 13 1013.9 1012.6 0.0
16/05:30pm 32.2 27.3 -3.2 10 16.4 SE 13 22 7 12 1014.1 1012.8 0.0
16/05:00pm 32.5 27.8 -1.7 11 16.3 S 13 22 7 12 1014.4 1013.2 0.0
16/04:30pm 31.5 27.6 -1.3 12 15.6 SE 9 17 5 9 1014.6 1013.4 0.0
16/04:00pm 31.7 26.6 -2.3 11 15.9 SSW 15 24 8 13 1015.1 1013.9 0.0
16/03:30pm 31.5 27.9 0.8 14 15.2 SSE 9 17 5 9 1015.4 1014.2 0.0
16/03:00pm 31.2 27.7 1.5 15 14.8 WSW 9 24 5 13 1015.9 1014.7 0.0
16/02:30pm 30.2 26.0 1.6 16 14.2 E 13 28 7 15 1016.3 1015.1 0.0
16/02:00pm 29.4 25.1 1.0 16 13.9 SSW 13 24 7 13 1016.9 1015.7 0.0
16/01:30pm 28.9 24.6 3.0 19 13.1 ESE 15 22 8 12 1017.3 1016.1 0.0
16/01:00pm 27.7 23.2 2.0 19 12.6 SE 15 26 8 14 1017.8 1016.6 0.0
16/12:30pm 27.5 24.2 4.5 23 11.8 ESE 11 22 6 12 1018.3 1017.0 0.0
16/12:00pm 27.2 23.7 5.5 25 11.3 SE 13 22 7 12 1018.6 1017.4 0.0
16/11:30am 26.2 22.3 5.2 26 10.8 SE 15 24 8 13 1018.8 1017.6 0.0
16/11:00am 24.4 20.0 4.7 28 9.9 SE 17 28 9 15 1018.9 1017.7 0.0
16/10:30am 24.4 20.6 5.7 30 9.6 ESE 15 26 8 14 1018.9 1017.7 0.0
16/10:00am 23.5 19.3 5.9 32 9.0 ESE 17 28 9 15 1019.1 1017.9 0.0
16/09:30am 22.8 19.6 8.5 40 7.7 ESE 15 26 8 14 1019.1 1017.9 0.0
16/09:00am 22.4 19.6 9.9 45 6.8 ESE 15 26 8 14 1019.0 1017.8 0.0
16/08:30am 21.0 17.3 9.6 48 6.2 E 19 35 10 19 1018.9 1017.7 0.0
16/08:00am 20.6 18.7 10.4 52 5.6 ESE 11 24 6 13 1018.4 1017.1 0.0
16/07:30am 19.4 17.6 10.9 58 4.7 ESE 11 22 6 12 1017.9 1016.7 0.0
16/07:00am 17.8 16.4 10.9 64 3.8 ESE 9 13 5 7 1017.3 1016.1 0.0
16/06:30am 16.9 15.4 10.5 66 3.4 E 9 13 5 7 1016.8 1015.6 0.0
16/06:00am 17.3 15.8 10.4 64 3.7 ESE 9 17 5 9 1016.3 1015.1 0.0
16/05:30am 17.6 16.1 10.5 63 3.8 E 9 15 5 8 1015.9 1014.7 0.0
16/05:00am 18.3 16.0 10.4 60 4.3 E 13 19 7 10 1015.7 1014.5 0.0
16/04:30am 18.2 16.5 9.8 58 4.5 ESE 9 17 5 9 1015.4 1014.2 0.0
16/04:00am 18.5 16.2 9.0 54 5.0 E 11 15 6 8 1015.1 1013.9 0.0
16/03:30am 19.4 17.1 9.0 51 5.5 E 11 17 6 9 1014.9 1013.7 0.0
16/03:00am 19.8 17.4 8.8 49 5.8 E 11 15 6 8 1015.0 1013.8 0.0
16/02:30am 20.4 18.3 8.1 45 6.5 E 9 15 5 8 1015.0 1013.8 0.0
16/02:00am 21.6 19.2 8.5 43 7.0 E 11 17 6 9 1014.9 1013.7 0.0
16/01:30am 21.2 19.3 9.1 46 6.5 ESE 9 15 5 8 1015.1 1013.9 0.0
16/01:00am 19.8 18.2 8.8 49 5.8 ESE 7 11 4 6 1015.1 1013.9 0.0
16/12:30am 20.6 18.5 8.3 45 6.5 SE 9 11 5 6 1015.0 1013.8 0.0
16/12:00am 21.9 19.8 8.4 42 7.2 ESE 9 15 5 8 1015.0 1013.8 0.0
 
Date/Time
EDT
Temp
°C
App
Temp
°C
Dew
Point
°C
Rel
Hum
%
Delta-T
°C
Wind Press
QNH
hPa
Press
MSL
hPa
Rain since
9am
mm
Dir  Spd
km/h
Gust
km/h
Spd
kts
Gust
kts
15/11:30pm 22.9 20.8 8.2 39 7.8 SE 9 15 5 8 1015.0 1013.8 0.0
15/11:00pm 24.4 21.6 8.4 36 8.6 SE 13 22 7 12 1014.9 1013.7 0.0
15/10:30pm 24.9 21.7 8.4 35 8.9 SSE 15 24 8 13 1014.7 1013.5 0.0
15/10:00pm 24.8 22.3 8.3 35 8.9 SE 11 19 6 10 1014.7 1013.5 0.0
15/09:30pm 25.3 22.4 8.3 34 9.2 SSE 13 20 7 11 1014.4 1013.2 0.0
15/09:00pm 26.1 23.2 8.1 32 9.8 SSE 13 20 7 11 1014.0 1012.7 0.0
15/08:30pm 26.8 23.4 7.8 30 10.3 SSE 15 26 8 14 1013.7 1012.4 0.0
15/08:00pm 28.3 24.1 7.5 27 11.3 SSE 19 32 10 17 1013.4 1012.1 0.0
15/07:30pm 29.1 24.8 7.1 25 11.9 SSE 19 32 10 17 1013.0 1011.8 0.0
15/07:00pm 29.6 24.6 6.3 23 12.5 SSE 22 37 12 20 1012.8 1011.6 0.0
15/06:30pm 30.4 25.4 6.3 22 13.0 S 22 39 12 21 1012.5 1011.3 0.0
15/06:00pm 30.6 25.5 5.8 21 13.3 S 22 37 12 20 1012.2 1011.0 0.0
15/05:30pm 30.6 26.0 6.5 22 13.0 SSE 20 35 11 19 1012.1 1010.9 0.0
15/05:00pm 30.4 25.8 6.3 22 13.0 S 20 39 11 21 1012.2 1011.0 0.0
15/04:30pm 30.5 24.4 6.4 22 13.0 S 28 41 15 22 1012.7 1011.5 0.0
15/04:00pm 30.7 25.2 5.9 21 13.3 S 24 35 13 19 1013.0 1011.8 0.0
15/03:30pm 29.8 24.1 5.1 21 13.0 S 24 41 13 22 1013.5 1012.2 0.0
15/03:00pm 30.2 25.4 5.5 21 13.1 S 20 30 11 16 1013.7 1012.4 0.0
15/02:30pm 29.8 25.8 6.5 23 12.5 SSW 17 33 9 18 1014.1 1012.8 0.0
15/02:00pm 30.0 25.6 6.6 23 12.6 S 19 33 10 18 1014.4 1013.2 0.0
15/01:30pm 28.4 24.4 6.5 25 11.7 SW 17 28 9 15 1014.9 1013.7 0.0
15/01:00pm 28.0 22.9 6.2 25 11.5 SW 22 37 12 20 1015.4 1014.2 0.0
15/12:30pm 26.6 22.4 5.5 26 11.0 S 17 28 9 15 1015.9 1014.7 0.0
15/12:00pm 26.8 23.1 6.2 27 10.8 SSW 15 26 8 14 1016.1 1014.9 0.0
15/11:30am 25.8 20.6 5.4 27 10.5 SSW 22 30 12 16 1016.4 1015.2 0.0
15/11:00am 24.2 20.8 6.0 31 9.4 S 13 20 7 11 1016.5 1015.3 0.0
15/10:30am 23.9 21.4 6.7 33 9.0 S 9 17 5 9 1016.6 1015.4 0.0
15/10:00am 23.6 22.1 6.8 34 8.8 WSW 4 11 2 6 1016.7 1015.5 0.0
15/09:30am 22.1 19.6 6.7 37 8.0 SE 9 13 5 7 1016.7 1015.5 0.0
15/09:00am 21.4 19.1 7.3 40 7.3 E 9 17 5 9 1016.7 1015.5 0.0
15/08:30am 20.4 17.3 7.4 43 6.7 ENE 13 20 7 11 1016.5 1015.3 0.0
15/08:00am 19.3 17.3 7.1 45 6.2 E 7 13 4 7 1016.3 1015.1 0.0
15/07:30am 17.6 15.7 6.8 49 5.4 SE 6 11 3 6 1016.1 1014.9 0.0
15/07:00am 13.5 11.9 6.4 62 3.4 SSE 4 6 2 3 1015.7 1014.5 0.0
15/06:30am 13.2 11.1 5.9 61 3.5 SE 6 7 3 4 1015.4 1014.2 0.0
15/06:00am 13.5 11.1 5.4 58 3.8 SE 7 9 4 5 1014.9 1013.7 0.0
15/05:30am 13.5 11.3 5.2 57 3.9 SE 6 9 3 5 1014.3 1013.0 0.0
15/05:00am 13.7 11.8 4.8 55 4.2 SE 4 7 2 4 1014.0 1012.7 0.0
15/04:30am 14.1 11.8 4.7 53 4.4 SSE 6 7 3 4 1013.7 1012.4 0.0
15/04:00am 14.7 12.4 4.7 51 4.7 SSE 6 7 3 4 1013.5 1012.2 0.0
15/03:30am 14.9 12.5 4.3 49 5.0 S 6 7 3 4 1013.4 1012.1 0.0
15/03:00am 15.7 13.3 4.4 47 5.3 S 6 7 3 4 1013.6 1012.3 0.0
15/02:30am 16.1 13.7 4.5 46 5.5 SW 6 9 3 5 1013.8 1012.5 0.0
15/02:00am 16.5 13.9 4.2 44 5.8 S 7 11 4 6 1013.8 1012.5 0.0
15/01:30am 16.9 14.3 4.3 43 6.0 S 7 11 4 6 1014.0 1012.7 0.0
15/01:00am 17.6 14.6 4.2 41 6.4 SSW 9 13 5 7 1014.2 1012.9 0.0
15/12:30am 17.5 14.9 4.1 41 6.4 S 7 9 4 5 1014.2 1012.9 0.0
15/12:00am 18.2 15.6 3.3 37 7.0 S 6 9 3 5 1014.1 1012.8 0.0
 
Date/Time
EDT
Temp
°C
App
Temp
°C
Dew
Point
°C
Rel
Hum
%
Delta-T
°C
Wind Press
QNH
hPa
Press
MSL
hPa
Rain since
9am
mm
Dir  Spd
km/h
Gust
km/h
Spd
kts
Gust
kts
14/11:30pm 19.4 16.6 3.2 34 7.7 S 7 11 4 6 1013.9 1012.6 0.0
14/11:00pm 19.7 16.5 3.0 33 7.9 S 9 13 5 7 1013.8 1012.5 0.0
14/10:30pm 20.3 17.0 2.2 30 8.5 S 9 13 5 7 1013.8 1012.5 0.0
14/10:00pm 21.1 17.7 1.9 28 9.0 S 9 15 5 8 1013.6 1012.3 0.0
14/09:30pm 21.9 18.1 1.6 26 9.5 S 11 20 6 11 1013.0 1011.8 0.0
14/09:00pm 22.6 18.8 1.6 25 9.9 S 11 17 6 9 1012.8 1011.6 0.0
14/08:30pm 23.3 19.0 1.0 23 10.4 S 13 19 7 10 1012.3 1011.1 0.0
14/08:00pm 24.4 19.7 0.7 21 11.1 S 15 26 8 14 1011.8 1010.6 0.0
14/07:30pm 25.2 19.5 0.7 20 11.6 S 20 37 11 20 1011.6 1010.4 0.0
14/07:00pm 25.5 19.0 0.2 19 11.9 SSE 24 39 13 21 1011.2 1010.0 0.0
14/06:30pm 26.3 20.5 0.1 18 12.3 S 20 32 11 17 1010.8 1009.6 0.0
14/06:00pm 26.5 19.6 0.3 18 12.4 S 26 39 14 21 1010.6 1009.4 0.0
14/05:32pm 26.2 18.9 0.0 18 12.3 S 28 46 15 25 1010.7 1009.5 0.0
14/05:30pm 26.0 19.1 -0.1 18 12.2 S 26 46 14 25 1010.7 1009.5 0.0
14/05:00pm 25.9 19.3 -0.2 18 12.2 S 24 44 13 24 1010.9 1009.7 0.0
14/04:30pm 26.2 19.2 -0.8 17 12.5 S 26 46 14 25 1010.9 1009.7 0.0
14/04:00pm 26.6 19.1 1.1 19 12.3 S 30 46 16 25 1010.9 1009.7 0.0
14/03:43pm 25.6 18.2 -0.5 18 12.1 S 28 46 15 25 1010.9 1009.7 0.0
14/03:30pm 26.4 19.5 0.2 18 12.4 S 26 50 14 27 1011.0 1009.8 0.0
14/03:23pm 25.8 18.5 -0.3 18 12.1 SSE 28 50 15 27 1011.0 1009.8 0.0
14/03:00pm 25.5 18.6 0.2 19 11.9 S 26 39 14 21 1011.1 1009.9 0.0
14/02:30pm 25.4 19.0 0.8 20 11.6 S 24 37 13 20 1011.2 1010.0 0.0
14/02:06pm 25.2 18.1 1.3 21 11.4 S 28 46 15 25 1011.3 1010.1 0.0
14/02:00pm 25.4 19.4 0.8 20 11.7 SSE 22 41 12 22 1011.5 1010.3 0.0
14/01:30pm 24.5 18.6 2.0 23 10.8 S 22 39 12 21 1011.5 1010.3 0.0
14/01:06pm 23.5 16.4 1.2 23 10.5 S 28 50 15 27 1011.8 1010.6 0.0
14/01:00pm 23.8 17.0 0.8 22 10.8 S 26 44 14 24 1011.8 1010.6 0.0
14/12:30pm 23.0 16.3 1.4 24 10.2 S 26 41 14 22 1012.0 1010.8 0.0
14/12:00pm 22.7 15.6 3.3 28 9.4 SSW 30 44 16 24 1012.0 1010.8 0.0
14/11:46am 22.2 15.3 2.8 28 9.3 S 28 46 15 25 1012.0 1010.8 0.0
14/11:30am 21.7 16.0 4.7 33 8.4 S 24 39 13 21 1011.9 1010.7 0.0
14/11:10am 20.5 14.0 4.9 36 7.7 S 28 48 15 26 1012.0 1010.8 0.0
14/11:00am 20.4 14.4 5.2 37 7.5 SSW 26 37 14 20 1012.1 1010.9 0.0
14/10:38am 19.4 13.1 5.5 40 6.9 S 28 46 15 25 1012.1 1010.9 0.0
14/10:30am 19.4 13.4 5.1 39 7.0 S 26 39 14 21 1012.1 1010.9 0.0
14/10:00am 18.7 12.7 7.2 47 5.9 S 28 39 15 21 1011.9 1010.7 0.0
14/09:30am 17.5 10.5 6.1 47 5.6 S 32 46 17 25 1011.8 1010.6 0.0
14/09:16am 18.0 11.8 6.2 46 5.9 S 28 46 15 25 1011.6 1010.4 0.0
14/09:00am 17.8 11.8 5.4 44 6.1 SSW 26 39 14 21 1011.4 1010.2 0.2
14/08:30am 16.9 9.8 5.5 47 5.6 SSW 32 43 17 23 1011.1 1009.9 0.2
14/08:03am 16.8 10.2 6.0 49 5.3 SSW 30 50 16 27 1010.9 1009.7 0.2
14/08:00am 17.0 10.5 6.5 50 5.2 SSW 30 43 16 23 1010.8 1009.6 0.2
14/07:30am 16.2 10.8 8.2 59 4.1 SW 26 33 14 18 1010.1 1008.8 0.2
14/07:00am 15.5 11.3 8.3 62 3.7 SSW 20 26 11 14 1009.9 1008.6 0.2
14/06:30am 15.2 11.0 8.4 64 3.5 SSW 20 35 11 19 1009.6 1008.3 0.2
14/06:00am 15.6 12.2 9.1 65 3.4 SSW 17 26 9 14 1009.4 1008.1 0.2
14/05:30am 16.2 11.0 8.7 61 3.9 SSW 26 35 14 19 1009.0 1007.7 0.2
14/05:00am 16.9 11.4 7.5 54 4.8 SSW 26 39 14 21 1008.2 1007.0 0.2
14/04:30am 17.5 11.0 6.7 49 5.4 SSW 30 41 16 22 1007.7 1006.5 0.2
14/04:00am 18.4 11.6 7.8 50 5.5 SSW 33 46 18 25 1007.4 1006.2 0.2
14/03:30am 19.5 12.5 8.5 49 5.8 SSW 35 50 19 27 1006.9 1005.7 0.2
14/03:28am 19.5 13.1 8.5 49 5.8 SSW 32 50 17 27 1006.9 1005.7 0.2
14/03:00am 19.6 13.2 9.2 51 5.6 SSW 33 44 18 24 1006.8 1005.6 0.2
14/02:30am 19.9 15.1 10.3 54 5.2 SW 26 37 14 20 1006.8 1005.6 0.2
14/02:00am 20.9 14.9 8.5 45 6.6 SW 30 44 16 24 1006.6 1005.4 0.2
14/01:54am 20.8 16.8 8.4 45 6.6 WSW 19 44 10 24 1006.5 1005.3 0.2
14/01:30am 18.5 16.6 9.0 54 5.0 W 9 9 5 5 1006.3 1005.1 0.2
14/01:00am 18.1 16.5 8.1 52 5.2 W 6 9 3 5 1006.7 1005.5 0.2
14/12:30am 18.6 16.4 8.0 50 5.5 WSW 9 9 5 5 1007.1 1005.9 0.2
14/12:00am 20.0 17.4 7.7 45 6.4 SW 11 13 6 7 1007.2 1006.0 0.2
 
Date/Time
EDT
Temp
°C
App
Temp
°C
Dew
Point
°C
Rel
Hum
%
Delta-T
°C
Wind Press
QNH
hPa
Press
MSL
hPa
Rain since
9am
mm
Dir  Spd
km/h
Gust
km/h
Spd
kts
Gust
kts
13/11:30pm 21.7 18.3 7.5 40 7.4 SW 15 20 8 11 1007.4 1006.2 0.2
13/11:00pm 22.6 18.7 7.2 37 8.1 SW 17 20 9 11 1007.4 1006.2 0.2
13/10:30pm 23.6 18.4 7.3 35 8.6 SW 24 32 13 17 1007.2 1006.0 0.2
13/10:00pm 24.2 19.3 6.9 33 9.1 SW 22 32 12 17 1007.1 1005.9 0.2
13/09:30pm 24.8 20.7 8.7 36 8.8 SW 20 30 11 16 1006.7 1005.5 0.2
13/09:00pm 24.9 21.4 8.8 36 8.8 SW 17 24 9 13 1006.1 1004.8 0.2
13/08:30pm 26.1 20.9 9.0 34 9.4 SW 26 35 14 19 1005.9 1004.6 0.2
13/08:00pm 27.0 21.6 9.4 33 9.8 WSW 28 35 15 19 1005.6 1004.3 0.2
13/07:30pm 28.1 22.9 10.3 33 10.1 SW 28 39 15 21 1005.1 1003.8 0.2
13/07:00pm 28.7 23.5 10.4 32 10.5 WSW 28 39 15 21 1004.6 1003.3 0.2

Other Formats:

Comma delimited format used in spreadsheet applications
http://www.bom.gov.au/fwo/IDN60801/IDN60801.95710.axf

JavaScript Object Notation format (JSON) in row-major order
http://www.bom.gov.au/fwo/IDN60801/IDN60801.95710.json